Time;durP1;ratioP1;P1;durP2;ratioP2;P2;SDS_P1;SDS_P2;PMS_P1;PMS_P2;Temp;Humidity;BMP_temperature;BMP_pressure;BME280_temperature;BME280_humidity;BME280_pressure;Samples;Min_cycle;Max_cycle;Signal;HPM_P1;HPM_P2
2022/12/05 00:04:15;;;;;;;10.55;5.63;;;17.60;53.30;;;;;;10525312;28;20453;-29
2022/12/05 00:09:17;;;;;;;8.88;5.82;;;17.50;53.30;;;;;;10532447;28;20382;-29
2022/12/05 00:14:19;;;;;;;8.47;5.93;;;17.50;53.40;;;;;;10516026;28;20056;-32
2022/12/05 00:19:22;;;;;;;9.70;5.47;;;17.50;53.30;;;;;;10535016;28;20465;-30
2022/12/05 00:24:24;;;;;;;9.10;6.28;;;17.40;53.60;;;;;;10539072;28;20051;-30
2022/12/05 00:29:26;;;;;;;9.00;5.60;;;17.40;53.30;;;;;;10532201;28;20070;-30
2022/12/05 00:34:29;;;;;;;10.60;6.30;;;17.50;53.30;;;;;;10517191;28;20152;-34
2022/12/05 00:39:31;;;;;;;13.35;6.38;;;17.50;53.30;;;;;;10525210;28;20137;-31
2022/12/05 00:44:33;;;;;;;9.10;5.50;;;17.50;53.30;;;;;;10510844;28;20454;-32
2022/12/05 00:49:36;;;;;;;8.77;5.93;;;17.40;53.30;;;;;;10527131;28;20052;-32
2022/12/05 00:54:38;;;;;;;7.82;5.25;;;17.40;53.30;;;;;;10538105;28;20124;-31
2022/12/05 00:59:40;;;;;;;7.88;5.43;;;17.40;53.40;;;;;;10520428;28;20347;-28
2022/12/05 01:04:44;;;;;;;7.00;5.03;;;17.40;53.40;;;;;;10536112;28;20051;-31
2022/12/05 01:09:45;;;;;;;7.40;5.10;;;17.40;53.40;;;;;;10532271;28;20048;-32
2022/12/05 01:14:47;;;;;;;9.37;4.80;;;17.40;53.30;;;;;;10535049;28;20088;-32
2022/12/05 01:19:50;;;;;;;8.13;5.17;;;17.30;53.30;;;;;;10544717;28;20059;-32
2022/12/05 01:24:52;;;;;;;7.85;5.43;;;17.30;53.40;;;;;;10529266;28;20565;-31
2022/12/05 01:29:54;;;;;;;7.97;5.47;;;17.30;53.30;;;;;;10523966;28;20048;-31
2022/12/05 01:34:58;;;;;;;8.27;5.13;;;17.30;53.40;;;;;;10521889;28;20062;-30
2022/12/05 01:40:00;;;;;;;9.55;5.25;;;17.30;53.30;;;;;;10523926;28;20052;-30
2022/12/05 01:45:14;;;;;;;9.43;5.70;;;17.30;53.40;;;;;;10538823;28;20068;-30
2022/12/05 01:50:18;;;;;;;9.05;5.15;;;17.20;53.40;;;;;;10514592;28;20056;-32
2022/12/05 01:55:20;;;;;;;7.40;5.38;;;17.30;53.40;;;;;;10524035;28;20052;-30
2022/12/05 02:00:22;;;;;;;8.00;4.88;;;17.20;53.50;;;;;;10523098;28;20044;-30
2022/12/05 02:05:28;;;;;;;6.90;4.85;;;17.20;53.50;;;;;;10515370;28;20079;-32
2022/12/05 02:10:34;;;;;;;7.22;4.90;;;17.20;53.30;;;;;;10523602;28;20089;-29
2022/12/05 02:15:43;;;;;;;7.93;5.13;;;17.20;53.40;;;;;;10533806;28;20084;-32
2022/12/05 02:21:03;;;;;;;7.07;4.68;;;17.20;53.40;;;;;;10528195;28;20051;-30
2022/12/05 02:26:30;;;;;;;6.50;4.57;;;17.30;53.40;;;;;;10530382;28;20190;-34
2022/12/05 02:31:38;;;;;;;6.88;4.82;;;17.20;53.40;;;;;;10525508;28;20040;-30
2022/12/05 02:36:44;;;;;;;6.43;4.60;;;17.20;53.50;;;;;;10531988;28;20044;-30
2022/12/05 02:41:53;;;;;;;6.53;4.80;;;17.20;53.40;;;;;;10540219;28;20047;-30
2022/12/05 02:46:58;;;;;;;7.45;4.97;;;17.20;53.50;;;;;;10527523;28;20044;-31
2022/12/05 02:52:02;;;;;;;7.75;4.93;;;17.20;53.40;;;;;;10522088;28;20481;-30
2022/12/05 02:57:05;;;;;;;6.57;4.70;;;17.20;53.50;;;;;;10531819;28;20416;-30
2022/12/05 03:02:25;;;;;;;7.85;4.28;;;17.20;53.40;;;;;;10525387;28;20075;-29
2022/12/05 03:07:30;;;;;;;5.40;4.38;;;17.10;53.40;;;;;;10508725;28;20143;-30
2022/12/05 03:12:36;;;;;;;8.35;4.97;;;17.20;53.50;;;;;;10531459;28;20303;-32
2022/12/05 03:17:44;;;;;;;8.18;5.07;;;17.10;53.40;;;;;;10530910;28;20086;-30
2022/12/05 03:22:52;;;;;;;7.65;4.40;;;17.10;53.50;;;;;;10522460;28;20059;-31
2022/12/05 03:28:05;;;;;;;6.20;4.32;;;17.10;53.50;;;;;;10525862;28;20132;-32
2022/12/05 03:33:13;;;;;;;6.90;5.05;;;17.00;53.60;;;;;;10511233;28;20047;-30
2022/12/05 03:38:21;;;;;;;6.93;4.43;;;17.10;53.50;;;;;;10523471;28;20416;-32
2022/12/05 03:43:30;;;;;;;7.03;4.30;;;17.10;53.50;;;;;;10516408;28;20048;-29
2022/12/05 03:48:37;;;;;;;6.70;4.53;;;17.10;53.50;;;;;;10527315;28;20157;-31
2022/12/05 03:53:44;;;;;;;6.32;4.18;;;17.10;53.40;;;;;;10531324;28;20077;-31
2022/12/05 03:58:53;;;;;;;5.82;4.32;;;17.10;53.30;;;;;;10521030;28;20047;-29
2022/12/05 04:04:00;;;;;;;6.55;4.30;;;17.10;53.40;;;;;;10530014;28;20051;-40
2022/12/05 04:09:05;;;;;;;6.43;4.45;;;17.10;53.40;;;;;;10518747;28;20069;-30
2022/12/05 04:14:11;;;;;;;8.45;4.35;;;17.10;53.50;;;;;;10531353;28;20506;-30
2022/12/05 04:19:19;;;;;;;5.80;4.03;;;17.10;53.40;;;;;;10549149;28;20147;-35
2022/12/05 04:29:48;;;;;;;6.57;4.10;;;17.10;53.50;;;;;;10530215;28;20052;-33
2022/12/05 04:34:57;;;;;;;5.57;4.20;;;17.00;53.50;;;;;;10515151;28;20072;-30
2022/12/05 04:40:05;;;;;;;6.32;4.13;;;17.00;53.40;;;;;;10519337;28;20204;-31
2022/12/05 04:45:10;;;;;;;6.85;4.40;;;17.10;53.50;;;;;;10525482;28;20575;-30
2022/12/05 04:50:14;;;;;;;6.97;4.20;;;17.00;53.50;;;;;;10520219;28;20070;-31
2022/12/05 04:55:24;;;;;;;5.80;3.97;;;17.00;53.50;;;;;;10524400;28;20048;-30
2022/12/05 05:00:28;;;;;;;5.00;3.90;;;17.00;53.50;;;;;;10521409;28;20044;-30
2022/12/05 05:05:34;;;;;;;6.10;3.95;;;17.00;53.50;;;;;;10513080;28;20051;-30
2022/12/05 05:10:45;;;;;;;5.07;3.85;;;17.00;53.50;;;;;;10511303;28;20052;-31
2022/12/05 05:15:46;;;;;;;5.13;3.45;;;17.00;54.00;;;;;;10516062;28;20079;-29
2022/12/05 05:20:50;;;;;;;6.17;3.90;;;17.00;53.40;;;;;;10513320;28;20135;-37
2022/12/05 05:25:53;;;;;;;6.30;4.00;;;17.10;53.40;;;;;;10505030;28;20160;-31
2022/12/05 05:30:55;;;;;;;5.68;3.78;;;17.10;53.50;;;;;;10507063;28;20484;-28
2022/12/05 05:36:01;;;;;;;5.90;3.93;;;17.10;53.40;;;;;;10517722;28;20076;-31
2022/12/05 05:41:03;;;;;;;6.00;3.55;;;17.20;53.50;;;;;;10509753;28;20079;-30
2022/12/05 05:46:05;;;;;;;5.20;3.97;;;17.20;53.50;;;;;;10505302;28;20044;-33
2022/12/05 05:51:11;;;;;;;4.38;3.42;;;17.20;53.60;;;;;;10516666;28;20109;-30
2022/12/05 05:56:15;;;;;;;5.57;3.67;;;17.20;53.60;;;;;;10515787;28;20477;-30
2022/12/05 06:01:19;;;;;;;5.43;3.50;;;17.30;53.60;;;;;;10513038;28;20371;-30
2022/12/05 06:06:22;;;;;;;4.20;3.20;;;17.30;53.70;;;;;;10537722;28;20549;-31
2022/12/05 06:11:27;;;;;;;5.38;3.40;;;17.30;53.70;;;;;;10532265;28;20554;-31
2022/12/05 06:16:31;;;;;;;4.80;3.15;;;17.30;53.80;;;;;;10522759;28;20048;-31
2022/12/05 06:21:34;;;;;;;5.70;2.97;;;17.30;53.80;;;;;;10533773;28;20196;-31
2022/12/05 06:26:36;;;;;;;8.27;3.53;;;17.30;53.80;;;;;;10536112;28;20048;-30
2022/12/05 06:31:38;;;;;;;3.88;3.05;;;17.30;53.90;;;;;;10517970;28;20048;-32
2022/12/05 06:36:41;;;;;;;4.15;3.10;;;17.40;53.90;;;;;;10524953;28;20059;-36
2022/12/05 06:41:43;;;;;;;4.97;3.35;;;17.30;53.90;;;;;;10533638;28;20131;-31
2022/12/05 06:46:45;;;;;;;4.70;2.90;;;17.30;53.90;;;;;;10519904;28;20142;-28
2022/12/05 06:51:48;;;;;;;4.17;3.10;;;17.40;53.90;;;;;;10523789;28;20124;-31
2022/12/05 06:56:50;;;;;;;4.25;3.13;;;17.30;54.00;;;;;;10516735;28;20505;-28
2022/12/05 07:15:30;;;;;;;4.60;3.10;;;17.50;53.50;;;;;;10500745;27;20751;-30
2022/12/05 07:20:32;;;;;;;7.03;3.30;;;17.40;54.20;;;;;;10513127;28;20041;-32
2022/12/05 07:25:34;;;;;;;6.40;2.83;;;17.40;54.20;;;;;;10520335;28;20076;-33
2022/12/05 07:30:37;;;;;;;4.35;3.05;;;17.60;54.10;;;;;;10521387;28;20587;-32
2022/12/05 07:35:39;;;;;;;6.10;2.90;;;17.60;54.10;;;;;;10518293;28;20080;-30
2022/12/05 07:40:41;;;;;;;13.40;3.43;;;17.70;54.20;;;;;;10522434;28;20048;-34
2022/12/05 07:45:44;;;;;;;9.43;3.65;;;17.70;54.10;;;;;;10521392;28;20479;-34
2022/12/05 07:50:46;;;;;;;6.88;3.17;;;17.70;54.10;;;;;;10519635;28;20048;-30
2022/12/05 07:55:48;;;;;;;8.97;3.57;;;17.80;54.10;;;;;;10514585;28;20076;-30
2022/12/05 08:00:51;;;;;;;10.20;4.50;;;17.70;54.00;;;;;;10517490;28;20482;-29
2022/12/05 08:05:53;;;;;;;5.60;3.70;;;17.70;54.00;;;;;;10518799;28;20946;-30
2022/12/05 08:10:55;;;;;;;6.22;3.83;;;17.70;53.80;;;;;;10519259;28;20059;-30
2022/12/05 08:16:02;;;;;;;6.73;4.07;;;17.70;53.70;;;;;;10517483;28;20110;-34
2022/12/05 08:21:05;;;;;;;7.20;3.80;;;17.70;53.70;;;;;;10519912;28;20498;-33
2022/12/05 08:26:11;;;;;;;5.85;3.65;;;17.70;53.60;;;;;;10496000;28;20095;-32
2022/12/05 08:31:15;;;;;;;6.82;3.40;;;17.70;53.50;;;;;;10490809;28;20106;-30
2022/12/05 08:36:18;;;;;;;5.50;3.55;;;17.70;53.50;;;;;;10490768;28;20444;-29
2022/12/05 08:41:20;;;;;;;6.07;3.25;;;17.40;52.50;;;;;;10492206;28;20476;-30
2022/12/05 08:46:24;;;;;;;3.87;2.73;;;17.70;53.20;;;;;;10489561;28;20106;-30
2022/12/05 08:51:26;;;;;;;6.28;3.58;;;17.70;53.70;;;;;;10489005;28;20052;-27
2022/12/05 08:56:27;;;;;;;5.93;2.83;;;17.70;53.10;;;;;;10490457;28;20082;-31
2022/12/05 09:01:32;;;;;;;4.97;2.75;;;17.70;53.00;;;;;;10490466;28;20044;-31
2022/12/05 09:06:34;;;;;;;3.97;2.83;;;17.70;52.90;;;;;;10488798;28;20042;-30
2022/12/05 09:11:40;;;;;;;2.80;2.17;;;17.70;52.90;;;;;;10486099;28;20056;-29
2022/12/05 09:16:44;;;;;;;3.92;2.22;;;17.70;52.90;;;;;;10491762;28;20130;-28
2022/12/05 09:21:46;;;;;;;3.67;2.60;;;17.70;52.80;;;;;;10488574;28;20084;-31
2022/12/05 09:26:48;;;;;;;3.47;2.07;;;17.70;52.90;;;;;;10486750;28;20169;-35
2022/12/05 09:31:52;;;;;;;5.13;2.42;;;17.60;52.70;;;;;;10489647;28;20496;-34
2022/12/05 09:36:56;;;;;;;4.15;2.38;;;17.60;52.70;;;;;;10480539;28;20047;-37
2022/12/05 09:42:29;;;;;;;3.25;2.15;;;17.60;52.70;;;;;;10482307;28;20128;-31
2022/12/05 09:47:49;;;;;;;2.30;1.80;;;17.70;52.60;;;;;;10484109;28;20102;-30
2022/12/05 09:53:11;;;;;;;2.72;1.65;;;17.70;52.50;;;;;;10477332;28;20147;-28
2022/12/05 09:58:36;;;;;;;3.47;1.90;;;17.70;52.40;;;;;;10482189;28;20516;-32
2022/12/05 10:03:45;;;;;;;2.35;1.50;;;17.70;52.40;;;;;;10482360;28;21077;-30
2022/12/05 10:09:04;;;;;;;2.25;1.52;;;17.70;52.40;;;;;;10483431;28;20149;-31
2022/12/05 10:14:12;;;;;;;2.42;1.88;;;17.60;52.40;;;;;;10490372;28;20458;-32
2022/12/05 10:19:21;;;;;;;3.55;1.80;;;17.70;52.30;;;;;;10483264;28;20045;-31
2022/12/05 10:24:29;;;;;;;1.65;1.45;;;17.60;52.30;;;;;;10486083;28;20063;-29
2022/12/05 10:29:36;;;;;;;2.10;1.27;;;17.60;52.20;;;;;;10487969;28;20048;-30
2022/12/05 10:34:41;;;;;;;2.35;1.42;;;17.60;52.30;;;;;;10487710;28;20087;-30
2022/12/05 10:39:43;;;;;;;3.45;1.55;;;17.60;52.30;;;;;;10486494;28;20048;-29
2022/12/05 10:44:45;;;;;;;2.85;1.08;;;17.60;52.20;;;;;;10486961;28;20102;-32
2022/12/05 10:49:49;;;;;;;4.88;1.60;;;17.60;52.10;;;;;;10480196;28;20102;-31
2022/12/05 10:54:57;;;;;;;4.60;1.20;;;17.60;52.10;;;;;;10484638;28;20044;-31
2022/12/05 11:00:10;;;;;;;1.85;1.33;;;17.60;52.00;;;;;;10483922;28;20341;-30
2022/12/05 11:05:13;;;;;;;1.77;1.50;;;17.60;52.10;;;;;;10485462;28;20078;-32
2022/12/05 11:10:25;;;;;;;2.50;1.13;;;17.60;52.10;;;;;;10477081;28;20195;-29
2022/12/05 11:15:29;;;;;;;1.33;1.05;;;17.60;52.00;;;;;;10481444;28;20057;-31
2022/12/05 11:20:38;;;;;;;2.30;1.23;;;17.60;52.10;;;;;;10482887;28;20083;-32
2022/12/05 11:25:40;;;;;;;1.65;1.27;;;17.60;52.00;;;;;;10482557;28;20714;-30
2022/12/05 11:30:56;;;;;;;2.23;0.87;;;17.60;51.90;;;;;;10484468;28;20144;-32
2022/12/05 11:36:04;;;;;;;2.13;1.25;;;17.60;51.90;;;;;;10477919;28;20088;-32
2022/12/05 11:41:23;;;;;;;1.75;1.25;;;17.60;51.90;;;;;;10480370;28;20052;-31
2022/12/05 11:46:32;;;;;;;2.40;1.25;;;17.60;51.90;;;;;;10485461;28;20117;-32
2022/12/05 11:51:40;;;;;;;1.50;1.10;;;17.60;51.90;;;;;;10482593;28;20147;-31
2022/12/05 11:56:49;;;;;;;2.75;1.45;;;17.60;51.90;;;;;;10485129;28;20080;-36
2022/12/05 12:02:03;;;;;;;3.78;1.27;;;17.50;52.00;;;;;;10491134;28;20480;-33
2022/12/05 12:07:29;;;;;;;2.10;1.58;;;17.60;51.90;;;;;;10492326;28;20044;-30
2022/12/05 12:12:39;;;;;;;3.17;1.08;;;17.40;52.10;;;;;;10485233;28;20504;-30
2022/12/05 12:17:48;;;;;;;2.05;1.20;;;17.60;51.80;;;;;;10479835;28;20554;-30
2022/12/05 12:23:17;;;;;;;1.30;1.10;;;17.40;52.10;;;;;;10488426;28;20090;-30
2022/12/05 12:28:33;;;;;;;2.20;1.33;;;17.50;52.30;;;;;;10491841;28;20063;-31
2022/12/05 12:33:42;;;;;;;1.70;1.00;;;17.10;52.80;;;;;;10488854;28;20056;-30
2022/12/05 12:39:03;;;;;;;2.72;1.20;;;17.40;52.50;;;;;;10488853;28;20044;-32
2022/12/05 12:44:23;;;;;;;1.80;0.90;;;17.40;52.50;;;;;;10485244;28;20409;-31
2022/12/05 12:49:41;;;;;;;2.25;1.05;;;17.30;52.70;;;;;;10488778;28;20052;-29
2022/12/05 12:54:59;;;;;;;1.38;0.80;;;17.40;52.50;;;;;;10488419;28;20127;-32
2022/12/05 13:00:11;;;;;;;3.72;1.30;;;17.30;52.60;;;;;;10484465;28;20064;-30
2022/12/05 13:05:23;;;;;;;4.68;0.88;;;17.40;52.60;;;;;;10486521;28;20052;-32
2022/12/05 13:10:33;;;;;;;1.98;1.10;;;17.30;52.80;;;;;;10488223;28;20188;-36
2022/12/05 13:15:40;;;;;;;3.17;1.60;;;17.30;52.70;;;;;;10488747;28;20049;-29
2022/12/05 13:20:43;;;;;;;1.88;1.02;;;17.10;52.60;;;;;;10485115;28;20418;-30
2022/12/05 13:25:46;;;;;;;2.08;1.23;;;17.20;52.70;;;;;;10486320;28;20397;-31
2022/12/05 13:30:57;;;;;;;4.85;1.25;;;17.20;52.80;;;;;;10487916;28;20523;-30
2022/12/05 13:47:00;;;;;;;2.35;1.17;;;17.50;52.60;;;;;;10480206;28;20048;-31
2022/12/05 13:52:07;;;;;;;2.15;0.80;;;17.50;52.70;;;;;;10487550;28;20110;-28
2022/12/05 13:57:47;;;;;;;2.38;0.88;;;17.60;52.80;;;;;;10489060;28;20102;-28
2022/12/05 14:02:51;;;;;;;1.10;0.80;;;17.50;53.10;;;;;;10485638;28;20465;-33
2022/12/05 14:07:54;;;;;;;1.05;0.90;;;17.60;53.10;;;;;;10486133;28;20135;-31
2022/12/05 14:12:59;;;;;;;0.98;0.90;;;17.70;53.00;;;;;;10487501;28;20517;-31
2022/12/05 14:18:14;;;;;;;1.33;0.82;;;17.50;53.60;;;;;;10484441;28;20052;-33
2022/12/05 14:23:46;;;;;;;2.00;1.30;;;17.60;53.10;;;;;;10486297;28;20048;-31
2022/12/05 14:29:12;;;;;;;1.15;0.88;;;17.70;53.20;;;;;;10474231;28;20094;-30
2022/12/05 14:34:23;;;;;;;1.83;1.00;;;17.60;53.50;;;;;;10477424;28;20106;-33
2022/12/05 14:39:44;;;;;;;4.47;0.90;;;17.60;53.30;;;;;;10485881;28;20050;-33
2022/12/05 14:44:49;;;;;;;0.88;0.75;;;17.70;53.40;;;;;;10486100;28;20135;-33
2022/12/05 14:50:00;;;;;;;1.20;1.00;;;17.60;53.70;;;;;;10484571;28;20079;-35
2022/12/05 14:55:10;;;;;;;2.53;1.20;;;17.70;53.60;;;;;;10484295;28;20048;-28
2022/12/05 15:00:21;;;;;;;2.88;0.70;;;17.50;54.10;;;;;;10485275;28;20040;-29
2022/12/05 15:05:26;;;;;;;1.30;0.82;;;17.50;54.10;;;;;;10481280;28;20047;-30
2022/12/05 15:10:31;;;;;;;2.00;1.00;;;17.60;54.00;;;;;;10485951;28;20083;-29
2022/12/05 15:15:40;;;;;;;1.95;1.15;;;17.60;53.90;;;;;;10491292;28;20153;-30
2022/12/05 15:20:48;;;;;;;2.08;1.30;;;17.60;53.90;;;;;;10476846;28;20469;-32
2022/12/05 15:25:52;;;;;;;3.78;1.60;;;17.60;54.00;;;;;;10484406;28;20187;-30
2022/12/05 15:30:57;;;;;;;1.60;1.25;;;17.40;54.50;;;;;;10484270;28;20194;-35
2022/12/05 15:35:59;;;;;;;2.35;1.17;;;17.40;54.50;;;;;;10491604;28;20149;-31
2022/12/05 15:41:01;;;;;;;2.03;1.08;;;17.50;54.10;;;;;;10492574;28;20052;-31
2022/12/05 15:46:22;;;;;;;3.03;1.30;;;17.20;54.70;;;;;;10490255;28;20412;-31
2022/12/05 15:51:30;;;;;;;2.67;1.40;;;17.40;55.10;;;;;;10491619;28;20385;-30
2022/12/05 15:56:36;;;;;;;2.88;1.40;;;17.50;54.40;;;;;;10492323;28;20056;-32
2022/12/05 16:01:44;;;;;;;5.65;1.35;;;17.50;54.30;;;;;;10489856;28;20477;-30
2022/12/05 16:06:49;;;;;;;1.45;1.05;;;17.40;54.60;;;;;;10492328;28;20135;-29
2022/12/05 16:11:53;;;;;;;3.63;1.20;;;17.50;54.40;;;;;;10487029;28;20053;-30
2022/12/05 16:17:01;;;;;;;2.47;1.27;;;17.40;54.80;;;;;;10486294;28;20433;-31
2022/12/05 16:22:09;;;;;;;1.00;0.80;;;17.50;54.70;;;;;;10488926;28;20045;-32
2022/12/05 16:27:16;;;;;;;1.98;1.08;;;17.40;55.20;;;;;;10495190;28;20059;-30
2022/12/05 16:32:23;;;;;;;4.00;2.20;;;17.40;54.50;;;;;;10498689;28;20105;-31
2022/12/05 16:37:27;;;;;;;2.17;1.27;;;17.30;54.60;;;;;;10492813;28;20041;-30
2022/12/05 16:42:30;;;;;;;1.45;0.90;;;17.30;54.30;;;;;;10489752;28;20528;-32
2022/12/05 16:48:01;;;;;;;1.55;1.10;;;17.40;54.70;;;;;;10489517;28;20058;-31
2022/12/05 16:53:13;;;;;;;5.32;1.25;;;17.40;54.70;;;;;;10443778;28;20127;-30
2022/12/05 16:58:20;;;;;;;1.75;0.93;;;17.40;55.00;;;;;;10491744;28;20071;-31
2022/12/05 17:03:24;;;;;;;2.33;1.30;;;17.60;54.70;;;;;;10490167;28;20044;-30
2022/12/05 17:08:26;;;;;;;2.55;1.42;;;17.50;54.70;;;;;;10489889;28;20044;-33
2022/12/05 17:13:28;;;;;;;6.07;2.70;;;17.30;55.10;;;;;;10494948;28;20048;-30
2022/12/05 17:18:32;;;;;;;4.80;2.38;;;17.20;55.50;;;;;;10488454;28;20152;-31
2022/12/05 17:23:34;;;;;;;3.75;1.50;;;17.40;55.00;;;;;;10491029;28;20059;-31
2022/12/05 17:28:36;;;;;;;3.80;1.70;;;17.40;55.00;;;;;;10490849;28;20098;-28
2022/12/05 17:33:39;;;;;;;7.53;3.53;;;17.30;55.00;;;;;;10478791;28;20502;-30
2022/12/05 17:38:42;;;;;;;10.10;4.85;;;17.20;55.30;;;;;;10485596;28;20258;-33
2022/12/05 17:43:44;;;;;;;10.52;4.53;;;17.20;55.40;;;;;;10488346;28;20044;-32
2022/12/05 17:48:48;;;;;;;;;;;17.20;55.30;;;;;;10488554;28;20509;-30
2022/12/05 17:53:51;;;;;;;10.55;5.45;;;17.20;55.30;;;;;;10482581;28;19998;-30
2022/12/05 17:58:53;;;;;;;9.20;4.15;;;17.10;55.70;;;;;;10484427;28;20053;-31
2022/12/05 18:03:56;;;;;;;16.53;3.27;;;17.30;55.20;;;;;;10489289;28;20448;-29
2022/12/05 18:08:58;;;;;;;6.93;2.67;;;17.30;55.30;;;;;;10484948;28;20052;-30
2022/12/05 18:14:00;;;;;;;6.50;2.87;;;17.10;55.70;;;;;;10488146;28;20143;-33
2022/12/05 18:19:03;;;;;;;9.82;2.88;;;17.20;55.50;;;;;;10482953;28;20111;-32
2022/12/05 18:24:06;;;;;;;7.72;2.83;;;17.00;55.80;;;;;;10488022;28;20052;-31
2022/12/05 18:29:07;;;;;;;9.25;3.03;;;17.00;55.50;;;;;;10488758;28;20044;-31
2022/12/05 18:34:11;;;;;;;7.43;2.70;;;17.10;55.50;;;;;;10488793;28;20226;-33
2022/12/05 18:39:14;;;;;;;8.73;2.90;;;17.10;55.60;;;;;;10487992;28;20056;-31
2022/12/05 18:44:16;;;;;;;9.60;3.20;;;17.10;55.50;;;;;;10483008;28;20425;-31
2022/12/05 18:49:19;;;;;;;9.50;2.45;;;17.10;55.60;;;;;;10488483;28;20469;-31
2022/12/05 18:54:21;;;;;;;3.45;1.95;;;17.10;55.70;;;;;;10484466;28;20221;-30
2022/12/05 18:59:24;;;;;;;6.45;2.67;;;17.00;55.70;;;;;;10487608;28;20068;-30
2022/12/05 19:04:28;;;;;;;8.38;3.92;;;17.10;55.60;;;;;;10487404;28;20053;-30
2022/12/05 19:09:32;;;;;;;8.07;3.95;;;17.00;55.80;;;;;;10485222;28;20409;-30
2022/12/05 19:14:34;;;;;;;7.97;4.03;;;17.00;55.90;;;;;;10492261;28;20087;-34
2022/12/05 19:19:37;;;;;;;12.52;5.03;;;17.10;55.70;;;;;;10484203;28;20509;-35
2022/12/05 19:24:39;;;;;;;8.38;4.10;;;17.10;55.90;;;;;;10487029;28;20057;-33
2022/12/05 19:29:41;;;;;;;8.60;4.23;;;17.00;55.90;;;;;;10484955;28;20424;-32
2022/12/05 19:34:45;;;;;;;4.82;2.67;;;17.20;55.90;;;;;;10487358;28;20155;-30
2022/12/05 19:39:48;;;;;;;4.25;1.95;;;17.40;55.80;;;;;;10486840;28;20055;-34
2022/12/05 19:44:51;;;;;;;3.60;1.67;;;17.20;56.00;;;;;;10486204;28;20049;-33
2022/12/05 19:49:54;;;;;;;5.57;1.90;;;17.40;56.10;;;;;;10485226;28;20052;-35
2022/12/05 19:54:55;;;;;;;4.65;1.88;;;17.40;56.30;;;;;;10476158;28;20053;-31
2022/12/05 19:59:57;;;;;;;4.87;1.93;;;17.40;56.20;;;;;;10479054;28;20080;-32
2022/12/05 20:05:01;;;;;;;3.85;1.73;;;17.40;57.00;;;;;;10476064;28;20080;-34
2022/12/05 20:10:02;;;;;;;4.18;2.10;;;17.40;56.60;;;;;;10484517;28;20052;-34
2022/12/05 20:15:05;;;;;;;11.03;2.10;;;17.40;56.70;;;;;;10478590;28;20676;-30
2022/12/05 20:20:10;;;;;;;9.57;2.00;;;17.30;56.60;;;;;;10486142;28;20072;-30
2022/12/05 20:25:12;;;;;;;6.05;1.67;;;17.40;56.80;;;;;;10488006;28;20148;-31
2022/12/05 20:30:14;;;;;;;11.73;1.23;;;17.50;56.70;;;;;;10486104;28;20040;-32
2022/12/05 20:35:17;;;;;;;5.00;2.17;;;17.50;56.60;;;;;;10488773;28;21034;-31
2022/12/05 20:40:19;;;;;;;11.48;1.80;;;17.50;56.60;;;;;;10492266;28;20076;-30
2022/12/05 20:45:21;;;;;;;4.00;1.50;;;17.50;56.60;;;;;;10490945;28;20048;-30
2022/12/05 20:50:24;;;;;;;7.60;2.45;;;17.40;57.00;;;;;;10490004;28;20048;-30
2022/12/05 20:55:26;;;;;;;11.05;1.88;;;17.50;56.80;;;;;;10484832;28;20077;-27
2022/12/05 21:00:28;;;;;;;6.97;2.00;;;17.50;56.70;;;;;;10489603;28;20056;-32
2022/12/05 21:05:34;;;;;;;3.47;1.73;;;17.40;56.80;;;;;;10481024;28;21480;-30
2022/12/05 21:10:36;;;;;;;4.32;1.50;;;17.50;56.70;;;;;;10483615;28;20509;-30
2022/12/05 21:15:38;;;;;;;6.35;1.52;;;17.50;56.70;;;;;;10491775;28;20519;-30
2022/12/05 21:20:41;;;;;;;8.87;1.80;;;17.50;56.70;;;;;;10487697;28;20460;-32
2022/12/05 21:25:43;;;;;;;7.20;1.95;;;17.50;56.80;;;;;;10490808;28;20566;-32
2022/12/05 21:30:45;;;;;;;3.07;1.27;;;17.50;56.80;;;;;;10488599;28;20045;-33
2022/12/05 21:35:55;;;;;;;5.70;1.65;;;17.50;56.90;;;;;;10493153;28;20087;-30
2022/12/05 21:40:56;;;;;;;7.40;1.67;;;17.50;56.80;;;;;;10489019;28;20045;-29
2022/12/05 21:45:58;;;;;;;3.97;1.75;;;17.50;56.80;;;;;;10490486;28;20106;-31
2022/12/05 21:51:05;;;;;;;3.83;1.60;;;17.50;56.80;;;;;;10488237;28;20133;-30
2022/12/05 21:56:09;;;;;;;3.00;1.02;;;17.50;56.80;;;;;;10491005;28;20056;-30
2022/12/05 22:01:16;;;;;;;5.88;1.40;;;17.50;56.90;;;;;;10490862;28;20117;-29
2022/12/05 22:06:19;;;;;;;8.60;1.90;;;17.50;56.90;;;;;;10484526;28;20093;-31
2022/12/05 22:11:23;;;;;;;8.45;1.52;;;17.40;57.00;;;;;;10482902;28;20056;-28
2022/12/05 22:16:24;;;;;;;5.88;1.65;;;17.40;56.90;;;;;;10489123;28;20051;-32
2022/12/05 22:21:28;;;;;;;6.83;1.57;;;17.40;56.90;;;;;;10487917;28;20211;-34
2022/12/05 22:26:30;;;;;;;4.03;1.45;;;17.50;56.90;;;;;;10487695;28;20075;-30
2022/12/05 22:31:32;;;;;;;7.37;1.40;;;17.40;57.30;;;;;;10480209;28;20094;-30
2022/12/05 22:36:35;;;;;;;5.40;0.98;;;17.40;56.80;;;;;;10474515;28;20589;-39
2022/12/05 22:41:37;;;;;;;4.13;1.73;;;17.40;56.90;;;;;;10483272;28;20056;-32
2022/12/05 22:46:39;;;;;;;4.13;1.60;;;17.40;57.00;;;;;;10454593;28;20186;-30
2022/12/05 22:51:42;;;;;;;3.27;1.30;;;17.40;56.90;;;;;;10478558;28;20092;-30
2022/12/05 22:56:44;;;;;;;3.78;1.50;;;17.40;57.00;;;;;;10486678;28;20101;-31
2022/12/05 23:01:46;;;;;;;3.83;1.20;;;17.40;56.90;;;;;;10486900;28;20044;-29
2022/12/05 23:06:49;;;;;;;1.63;0.90;;;17.40;56.90;;;;;;10471552;28;20072;-36
2022/12/05 23:11:51;;;;;;;5.95;1.40;;;17.40;56.90;;;;;;10481811;28;20063;-29
2022/12/05 23:16:53;;;;;;;2.78;1.50;;;17.30;56.80;;;;;;10482729;28;20059;-31
2022/12/05 23:21:56;;;;;;;2.90;1.35;;;17.30;56.80;;;;;;10480781;28;20048;-32
2022/12/05 23:26:58;;;;;;;4.18;1.65;;;17.30;57.40;;;;;;10477893;28;20037;-31
2022/12/05 23:32:00;;;;;;;3.87;1.73;;;17.30;56.90;;;;;;10479268;28;20730;-30
2022/12/05 23:37:04;;;;;;;4.50;1.13;;;17.30;56.80;;;;;;10486596;28;20495;-31
2022/12/05 23:42:06;;;;;;;3.05;1.40;;;17.30;56.80;;;;;;10482925;28;20527;-30
2022/12/05 23:47:08;;;;;;;3.53;1.17;;;17.30;56.80;;;;;;10485409;28;20447;-30
2022/12/05 23:52:11;;;;;;;2.95;1.10;;;17.30;56.80;;;;;;10485781;28;20060;-33
2022/12/05 23:57:13;;;;;;;5.35;1.25;;;17.30;57.40;;;;;;10486323;28;20583;-31
